Time;durP1;ratioP1;P1;durP2;ratioP2;P2;SDS_P1;SDS_P2;PMS_P1;PMS_P2;Temp;Humidity;BMP_temperature;BMP_pressure;BME280_temperature;BME280_humidity;BME280_pressure;Samples;Min_cycle;Max_cycle;Signal;HPM_P1;HPM_P2
2022/01/02 00:01:04;;;;;;;10.07;3.23;;;;;;;;;;5077112;28;20737;-72
2022/01/02 00:03:34;;;;;;;5.70;2.67;;;;;;;;;;5076013;28;20474;-72
2022/01/02 00:06:02;;;;;;;4.63;2.40;;;;;;;;;;5076027;28;20455;-72
2022/01/02 00:08:32;;;;;;;3.23;2.60;;;;;;;;;;5076041;28;20444;-72
2022/01/02 00:10:59;;;;;;;4.00;1.93;;;;;;;;;;5076643;28;20651;-72
2022/01/02 00:13:31;;;;;;;4.80;3.00;;;;;;;;;;5076757;28;20907;-72
2022/01/02 00:16:04;;;;;;;5.97;2.73;;;;;;;;;;5076633;28;20448;-72
2022/01/02 00:18:33;;;;;;;4.07;2.80;;;;;;;;;;5077555;28;20448;-72
2022/01/02 00:21:02;;;;;;;3.73;2.17;;;;;;;;;;5076831;28;20557;-72
2022/01/02 00:23:33;;;;;;;5.30;3.00;;;;;;;;;;5076450;28;20456;-72
2022/01/02 00:26:05;;;;;;;6.53;2.43;;;;;;;;;;5076852;28;20456;-72
2022/01/02 00:28:33;;;;;;;5.50;2.97;;;;;;;;;;5076189;28;20503;-72
2022/01/02 00:31:00;;;;;;;5.30;2.33;;;;;;;;;;5076384;28;20459;-72
2022/01/02 00:33:27;;;;;;;5.13;2.40;;;;;;;;;;5076652;28;20580;-73
2022/01/02 00:35:54;;;;;;;4.73;2.70;;;;;;;;;;5076553;28;20479;-72
2022/01/02 00:38:22;;;;;;;6.97;3.00;;;;;;;;;;5076330;28;20474;-72
2022/01/02 00:40:50;;;;;;;7.33;3.40;;;;;;;;;;5076878;28;20467;-72
2022/01/02 00:43:22;;;;;;;7.40;2.60;;;;;;;;;;5077743;28;20456;-72
2022/01/02 00:45:51;;;;;;;6.03;3.30;;;;;;;;;;5076075;28;20462;-72
2022/01/02 00:48:21;;;;;;;11.00;4.27;;;;;;;;;;5076471;28;20459;-72
2022/01/02 00:50:50;;;;;;;7.37;3.67;;;;;;;;;;5076075;28;20456;-73
2022/01/02 00:53:18;;;;;;;7.20;2.87;;;;;;;;;;5076450;28;20575;-72
2022/01/02 00:55:46;;;;;;;5.17;2.63;;;;;;;;;;5077265;28;20460;-72
2022/01/02 00:58:14;;;;;;;3.57;2.60;;;;;;;;;;5076084;28;20461;-72
2022/01/02 01:00:46;;;;;;;5.37;3.70;;;;;;;;;;5076695;28;20448;-72
2022/01/02 01:03:18;;;;;;;4.10;3.10;;;;;;;;;;5076222;28;20464;-72
2022/01/02 01:05:45;;;;;;;5.80;3.20;;;;;;;;;;5077546;28;20452;-72
2022/01/02 01:08:12;;;;;;;5.17;3.00;;;;;;;;;;5075966;28;20436;-72
2022/01/02 01:10:43;;;;;;;5.40;3.53;;;;;;;;;;5079452;28;20872;-72
2022/01/02 01:13:10;;;;;;;8.20;3.50;;;;;;;;;;5079938;28;20920;-72
2022/01/02 01:15:38;;;;;;;7.10;3.53;;;;;;;;;;5079290;28;20610;-72
2022/01/02 01:18:05;;;;;;;6.73;4.93;;;;;;;;;;5079410;28;20452;-72
2022/01/02 01:20:37;;;;;;;7.27;4.30;;;;;;;;;;5079805;28;20452;-72
2022/01/02 01:23:04;;;;;;;5.20;3.73;;;;;;;;;;5079272;28;20467;-72
2022/01/02 01:25:31;;;;;;;5.33;3.40;;;;;;;;;;5079634;28;20559;-72
2022/01/02 01:27:58;;;;;;;6.50;4.17;;;;;;;;;;5079477;28;20480;-72
2022/01/02 01:30:26;;;;;;;5.13;4.00;;;;;;;;;;5079351;28;20460;-71
2022/01/02 01:32:54;;;;;;;4.10;3.33;;;;;;;;;;5079217;28;20484;-73
2022/01/02 01:35:21;;;;;;;9.80;3.90;;;;;;;;;;5080604;28;20843;-72
2022/01/02 01:37:49;;;;;;;8.20;4.53;;;;;;;;;;5079045;28;20453;-73
2022/01/02 01:40:16;;;;;;;11.07;3.67;;;;;;;;;;5079645;28;20464;-73
2022/01/02 01:42:54;;;;;;;5.90;3.60;;;;;;;;;;5079069;28;20448;-73
2022/01/02 01:45:31;;;;;;;7.80;3.90;;;;;;;;;;5079400;28;20495;-73
2022/01/02 01:47:58;;;;;;;5.17;3.47;;;;;;;;;;5078970;28;20506;-72
2022/01/02 01:50:26;;;;;;;8.03;4.40;;;;;;;;;;5078419;28;20779;-72
2022/01/02 01:52:54;;;;;;;11.17;4.50;;;;;;;;;;5078637;28;20523;-73
2022/01/02 01:55:22;;;;;;;8.43;4.00;;;;;;;;;;5079671;28;20489;-72
2022/01/02 01:57:51;;;;;;;5.50;4.07;;;;;;;;;;5078799;28;20450;-72
2022/01/02 02:00:19;;;;;;;6.20;4.10;;;;;;;;;;5079576;28;20541;-72
2022/01/02 02:02:46;;;;;;;6.53;4.10;;;;;;;;;;5078739;28;20461;-72
2022/01/02 02:05:13;;;;;;;4.97;3.77;;;;;;;;;;5079322;28;20496;-72
2022/01/02 02:07:42;;;;;;;4.80;3.47;;;;;;;;;;5079033;28;20785;-72
2022/01/02 02:10:13;;;;;;;5.53;4.30;;;;;;;;;;5078873;28;20465;-72
2022/01/02 02:12:40;;;;;;;8.53;3.50;;;;;;;;;;5078645;28;20498;-72
2022/01/02 02:15:08;;;;;;;6.90;4.43;;;;;;;;;;5078898;28;20682;-71
2022/01/02 02:17:35;;;;;;;7.73;3.60;;;;;;;;;;5077891;28;20456;-72
2022/01/02 02:20:12;;;;;;;7.47;4.63;;;;;;;;;;5079813;28;20555;-73
2022/01/02 02:22:41;;;;;;;7.53;3.60;;;;;;;;;;5078514;28;20460;-72
2022/01/02 02:25:08;;;;;;;6.47;4.13;;;;;;;;;;5077918;28;20468;-72
2022/01/02 02:27:35;;;;;;;6.33;4.00;;;;;;;;;;5078414;28;20474;-72
2022/01/02 02:30:02;;;;;;;7.23;3.87;;;;;;;;;;5078591;28;20473;-72
2022/01/02 02:32:29;;;;;;;6.37;4.57;;;;;;;;;;5078020;28;20537;-72
2022/01/02 02:34:56;;;;;;;9.93;5.60;;;;;;;;;;5078423;28;20503;-72
2022/01/02 02:37:25;;;;;;;9.50;4.60;;;;;;;;;;5078969;28;20449;-72
2022/01/02 02:39:53;;;;;;;6.43;4.27;;;;;;;;;;5078093;28;20465;-72
2022/01/02 02:42:30;;;;;;;6.20;4.53;;;;;;;;;;5078914;28;20780;-72
2022/01/02 02:48:57;;;;;;;9.00;4.40;;;;;;;;;;5078038;28;20449;-72
2022/01/02 02:50:44;;;;;;;9.80;4.47;;;;;;;;;;5077969;28;20533;-72
2022/01/02 02:53:12;;;;;;;9.93;4.30;;;;;;;;;;5078816;28;20507;-73
2022/01/02 02:55:44;;;;;;;8.73;4.70;;;;;;;;;;5078478;28;20460;-72
2022/01/02 02:58:38;;;;;;;6.10;3.90;;;;;;;;;;5078437;28;20475;-73
2022/01/02 03:01:04;;;;;;;7.90;4.93;;;;;;;;;;5078079;28;20841;-73
2022/01/02 03:03:32;;;;;;;5.97;3.70;;;;;;;;;;5077248;28;20864;-73
2022/01/02 03:05:59;;;;;;;5.73;3.80;;;;;;;;;;5077562;28;20449;-73
2022/01/02 03:08:27;;;;;;;7.50;4.37;;;;;;;;;;5077384;28;20782;-73
2022/01/02 03:10:54;;;;;;;7.70;4.40;;;;;;;;;;5077425;28;20461;-73
2022/01/02 03:13:21;;;;;;;11.80;4.07;;;;;;;;;;5077092;28;20491;-73
2022/01/02 03:15:48;;;;;;;8.80;4.00;;;;;;;;;;5077185;28;20456;-73
2022/01/02 03:18:15;;;;;;;6.83;3.60;;;;;;;;;;5077308;28;20740;-73
2022/01/02 03:20:42;;;;;;;6.73;4.63;;;;;;;;;;5077684;28;20488;-73
2022/01/02 03:23:09;;;;;;;8.93;4.17;;;;;;;;;;5077539;28;20457;-73
2022/01/02 03:25:37;;;;;;;5.90;4.40;;;;;;;;;;5077465;28;20843;-73
2022/01/02 03:28:04;;;;;;;7.17;4.03;;;;;;;;;;5078260;28;20488;-73
2022/01/02 03:30:31;;;;;;;9.80;4.73;;;;;;;;;;5076688;28;20506;-73
2022/01/02 03:32:58;;;;;;;8.67;5.37;;;;;;;;;;5076092;28;20594;-73
2022/01/02 03:35:25;;;;;;;6.30;4.50;;;;;;;;;;5076890;28;20468;-73
2022/01/02 03:37:52;;;;;;;9.23;5.47;;;;;;;;;;5076793;28;20449;-73
2022/01/02 03:40:19;;;;;;;10.57;4.50;;;;;;;;;;5077533;28;20470;-73
2022/01/02 03:42:47;;;;;;;11.27;4.30;;;;;;;;;;5077256;28;20529;-73
2022/01/02 03:45:14;;;;;;;8.97;4.70;;;;;;;;;;5078048;28;20537;-73
2022/01/02 03:47:41;;;;;;;8.93;4.67;;;;;;;;;;5077557;28;20728;-73
2022/01/02 03:50:08;;;;;;;10.50;4.67;;;;;;;;;;5078110;28;20459;-72
2022/01/02 03:52:35;;;;;;;5.80;4.27;;;;;;;;;;5077067;28;20487;-72
2022/01/02 03:55:02;;;;;;;6.87;4.10;;;;;;;;;;5076944;28;20804;-73
2022/01/02 03:57:32;;;;;;;7.40;4.00;;;;;;;;;;5077251;28;20499;-72
2022/01/02 03:59:59;;;;;;;6.47;4.00;;;;;;;;;;5076464;28;20452;-73
2022/01/02 04:02:26;;;;;;;6.83;4.30;;;;;;;;;;5076400;28;20479;-73
2022/01/02 04:04:53;;;;;;;8.87;4.07;;;;;;;;;;5077157;28;20918;-73
2022/01/02 04:07:20;;;;;;;7.63;4.00;;;;;;;;;;5077064;28;20490;-73
2022/01/02 04:09:48;;;;;;;8.03;4.47;;;;;;;;;;5076990;28;20448;-72
2022/01/02 04:12:15;;;;;;;4.77;3.53;;;;;;;;;;5077006;28;20909;-72
2022/01/02 04:14:42;;;;;;;5.53;4.20;;;;;;;;;;5076415;28;20449;-74
2022/01/02 04:17:10;;;;;;;4.83;3.27;;;;;;;;;;5076601;28;20486;-72
2022/01/02 04:19:37;;;;;;;7.57;4.63;;;;;;;;;;5076949;28;20450;-73
2022/01/02 04:22:04;;;;;;;5.37;3.87;;;;;;;;;;5076157;28;20706;-73
2022/01/02 04:24:31;;;;;;;5.50;3.50;;;;;;;;;;5077302;28;20448;-73
2022/01/02 04:26:58;;;;;;;4.50;3.50;;;;;;;;;;5076483;28;20654;-73
2022/01/02 04:29:30;;;;;;;5.70;3.90;;;;;;;;;;5076314;28;20551;-73
2022/01/02 04:31:57;;;;;;;11.23;4.03;;;;;;;;;;5076611;28;20484;-73
2022/01/02 04:34:25;;;;;;;7.33;4.50;;;;;;;;;;5076655;28;20463;-73
2022/01/02 04:36:52;;;;;;;8.13;4.97;;;;;;;;;;5076888;28;20471;-73
2022/01/02 04:39:19;;;;;;;8.13;4.80;;;;;;;;;;5076002;28;20452;-73
2022/01/02 04:41:46;;;;;;;8.67;4.30;;;;;;;;;;5076969;28;20768;-73
2022/01/02 04:44:13;;;;;;;11.67;3.47;;;;;;;;;;5079461;28;20449;-73
2022/01/02 04:46:40;;;;;;;9.90;4.50;;;;;;;;;;5080178;28;20452;-73
2022/01/02 04:49:06;;;;;;;7.40;3.90;;;;;;;;;;5079742;28;20449;-72
2022/01/02 04:51:34;;;;;;;7.30;4.43;;;;;;;;;;5079967;28;20463;-72
2022/01/02 04:54:01;;;;;;;8.30;4.60;;;;;;;;;;5079168;28;20488;-72
2022/01/02 04:56:28;;;;;;;6.90;4.60;;;;;;;;;;5079252;28;20475;-72
2022/01/02 04:58:55;;;;;;;6.80;4.10;;;;;;;;;;5079685;28;20873;-72
2022/01/02 05:01:22;;;;;;;5.70;3.50;;;;;;;;;;5079863;28;20719;-72
2022/01/02 05:03:49;;;;;;;6.37;3.87;;;;;;;;;;5079734;28;20861;-72
2022/01/02 05:06:16;;;;;;;6.40;3.50;;;;;;;;;;5080398;28;20706;-72
2022/01/02 05:08:45;;;;;;;6.20;3.70;;;;;;;;;;5079414;28;20476;-72
2022/01/02 05:11:11;;;;;;;7.43;4.70;;;;;;;;;;5078091;28;20460;-72
2022/01/02 05:13:38;;;;;;;7.23;4.17;;;;;;;;;;5078923;28;20527;-72
2022/01/02 05:16:06;;;;;;;7.53;4.30;;;;;;;;;;5079237;28;20456;-72
2022/01/02 05:18:32;;;;;;;7.30;4.20;;;;;;;;;;5078780;28;20448;-72
2022/01/02 05:20:59;;;;;;;6.53;4.27;;;;;;;;;;5078672;28;20468;-72
2022/01/02 05:23:29;;;;;;;6.50;3.90;;;;;;;;;;5079052;28;20460;-72
2022/01/02 05:25:57;;;;;;;7.63;4.70;;;;;;;;;;5078959;28;20490;-72
2022/01/02 05:28:24;;;;;;;10.40;3.97;;;;;;;;;;5079145;28;20514;-71
2022/01/02 05:30:51;;;;;;;6.03;3.43;;;;;;;;;;5079634;28;20463;-71
2022/01/02 05:33:18;;;;;;;15.20;4.93;;;;;;;;;;5079455;28;20499;-72
2022/01/02 05:35:45;;;;;;;11.77;4.70;;;;;;;;;;5079302;28;20722;-72
2022/01/02 05:38:12;;;;;;;8.23;4.50;;;;;;;;;;5078305;28;20458;-72
2022/01/02 05:40:39;;;;;;;6.30;3.50;;;;;;;;;;5078944;28;20447;-73
2022/01/02 05:43:07;;;;;;;5.23;3.13;;;;;;;;;;5079587;28;20479;-73
2022/01/02 05:45:34;;;;;;;6.60;4.60;;;;;;;;;;5078969;28;20518;-73
2022/01/02 05:48:02;;;;;;;6.33;3.60;;;;;;;;;;5079369;28;20885;-72
2022/01/02 05:50:29;;;;;;;6.37;3.93;;;;;;;;;;5078174;28;20536;-72
2022/01/02 05:52:59;;;;;;;7.27;3.57;;;;;;;;;;5078580;28;20511;-72
2022/01/02 05:55:26;;;;;;;4.70;3.20;;;;;;;;;;5078016;28;20452;-73
2022/01/02 05:57:53;;;;;;;5.97;3.50;;;;;;;;;;5078830;28;20877;-72
2022/01/02 06:00:21;;;;;;;6.90;4.10;;;;;;;;;;5078121;28;20459;-72
2022/01/02 06:02:48;;;;;;;6.43;3.20;;;;;;;;;;5079495;28;20875;-72
2022/01/02 06:05:15;;;;;;;7.67;5.00;;;;;;;;;;5078785;28;20437;-73
2022/01/02 06:07:43;;;;;;;6.43;3.53;;;;;;;;;;5077774;28;20547;-72
2022/01/02 06:10:11;;;;;;;7.90;4.30;;;;;;;;;;5078553;28;20726;-72
2022/01/02 06:12:37;;;;;;;5.60;3.47;;;;;;;;;;5078432;28;20496;-73
2022/01/02 06:15:06;;;;;;;5.83;3.33;;;;;;;;;;5078811;28;20444;-73
2022/01/02 06:17:37;;;;;;;8.23;3.70;;;;;;;;;;5078954;28;20487;-73
2022/01/02 06:20:04;;;;;;;6.07;3.77;;;;;;;;;;5078319;28;20487;-72
2022/01/02 06:22:31;;;;;;;7.20;3.93;;;;;;;;;;5078330;28;20458;-73
2022/01/02 06:24:58;;;;;;;7.20;3.30;;;;;;;;;;5078467;28;20445;-72
2022/01/02 06:27:25;;;;;;;3.93;3.07;;;;;;;;;;5078565;28;20456;-73
2022/01/02 06:29:52;;;;;;;10.60;4.37;;;;;;;;;;5080178;28;20440;-73
2022/01/02 06:32:21;;;;;;;8.50;4.03;;;;;;;;;;5078531;28;20460;-72
2022/01/02 06:34:52;;;;;;;9.10;3.87;;;;;;;;;;5079062;28;20457;-72
2022/01/02 06:37:20;;;;;;;7.00;3.57;;;;;;;;;;5078451;28;20467;-73
2022/01/02 06:39:47;;;;;;;7.70;3.97;;;;;;;;;;5078126;28;20722;-72
2022/01/02 06:42:14;;;;;;;5.40;4.07;;;;;;;;;;5078269;28;20556;-72
2022/01/02 06:44:41;;;;;;;4.90;4.17;;;;;;;;;;5077677;28;20469;-72
2022/01/02 06:47:08;;;;;;;11.60;4.20;;;;;;;;;;5077269;28;20453;-72
2022/01/02 06:49:35;;;;;;;4.80;3.67;;;;;;;;;;5077625;28;20716;-72
2022/01/02 06:52:03;;;;;;;5.90;3.00;;;;;;;;;;5077157;28;20486;-72
2022/01/02 06:54:31;;;;;;;7.13;3.03;;;;;;;;;;5077672;28;20488;-73
2022/01/02 06:56:58;;;;;;;6.10;3.40;;;;;;;;;;5076327;28;20453;-72
2022/01/02 06:59:27;;;;;;;5.40;3.47;;;;;;;;;;5077441;28;20446;-72
2022/01/02 07:01:54;;;;;;;4.47;3.30;;;;;;;;;;5077517;28;20721;-73
2022/01/02 07:04:21;;;;;;;6.37;3.03;;;;;;;;;;5076912;28;20461;-72
2022/01/02 07:06:48;;;;;;;8.03;4.50;;;;;;;;;;5077526;28;20448;-73
2022/01/02 07:09:15;;;;;;;9.63;3.47;;;;;;;;;;5078714;28;20449;-73
2022/01/02 07:11:42;;;;;;;4.70;2.90;;;;;;;;;;5077459;28;20461;-72
2022/01/02 07:14:09;;;;;;;4.80;3.20;;;;;;;;;;5067841;28;20485;-73
2022/01/02 07:16:36;;;;;;;5.17;3.20;;;;;;;;;;5058048;28;20493;-73
2022/01/02 07:19:03;;;;;;;8.70;4.13;;;;;;;;;;5057919;28;20955;-73
2022/01/02 07:21:30;;;;;;;5.70;3.93;;;;;;;;;;5057893;28;20449;-73
2022/01/02 07:23:58;;;;;;;7.50;3.27;;;;;;;;;;5056999;28;20793;-72
2022/01/02 07:26:26;;;;;;;4.17;2.43;;;;;;;;;;5057601;28;20542;-72
2022/01/02 07:28:53;;;;;;;4.90;2.47;;;;;;;;;;5057453;28;20457;-73
2022/01/02 07:31:20;;;;;;;4.27;3.00;;;;;;;;;;5057679;28;21013;-73
2022/01/02 07:33:47;;;;;;;4.20;2.50;;;;;;;;;;5056518;28;20496;-72
2022/01/02 07:36:14;;;;;;;6.10;3.20;;;;;;;;;;5061193;28;20458;-73
2022/01/02 07:38:41;;;;;;;5.70;2.73;;;;;;;;;;5056832;28;20544;-73
2022/01/02 07:41:08;;;;;;;5.40;3.17;;;;;;;;;;5057158;28;20881;-72
2022/01/02 07:43:35;;;;;;;8.00;2.87;;;;;;;;;;5057239;28;20453;-73
2022/01/02 07:46:02;;;;;;;3.60;2.10;;;;;;;;;;5056850;28;20460;-73
2022/01/02 07:48:29;;;;;;;3.90;2.30;;;;;;;;;;5056879;28;20564;-73
2022/01/02 07:50:56;;;;;;;10.40;4.00;;;;;;;;;;5057361;28;20523;-72
2022/01/02 07:53:23;;;;;;;5.07;3.10;;;;;;;;;;5055421;28;20553;-72
2022/01/02 07:55:50;;;;;;;7.13;3.80;;;;;;;;;;5056451;28;20472;-73
2022/01/02 07:58:17;;;;;;;4.27;3.40;;;;;;;;;;5057112;28;20454;-73
2022/01/02 08:00:45;;;;;;;6.50;6.10;;;;;;;;;;5056566;28;20512;-72
2022/01/02 08:03:12;;;;;;;12.07;11.30;;;;;;;;;;5056506;28;20881;-73
2022/01/02 08:05:38;;;;;;;47.10;33.60;;;;;;;;;;5056089;28;20453;-72
2022/01/02 08:08:05;;;;;;;10.67;9.70;;;;;;;;;;5056207;28;20438;-72
2022/01/02 08:10:33;;;;;;;14.63;13.30;;;;;;;;;;5055984;28;20445;-73
2022/01/02 08:13:00;;;;;;;5.10;3.07;;;;;;;;;;5056772;28;20500;-72
2022/01/02 08:15:27;;;;;;;10.10;9.40;;;;;;;;;;5067140;28;20437;-73
2022/01/02 08:17:55;;;;;;;8.37;7.80;;;;;;;;;;5077590;28;20480;-73
2022/01/02 08:20:22;;;;;;;9.33;6.37;;;;;;;;;;5075882;28;20452;-72
2022/01/02 08:22:49;;;;;;;7.30;5.40;;;;;;;;;;5076638;28;20460;-72
2022/01/02 08:25:16;;;;;;;6.10;5.60;;;;;;;;;;5076195;28;20521;-72
2022/01/02 08:27:43;;;;;;;8.57;7.87;;;;;;;;;;5076022;28;20891;-72
2022/01/02 08:30:10;;;;;;;12.50;9.33;;;;;;;;;;5076059;28;20448;-73
2022/01/02 08:32:38;;;;;;;11.53;10.50;;;;;;;;;;5076344;28;20488;-73
2022/01/02 08:35:09;;;;;;;11.03;7.33;;;;;;;;;;5075735;28;20437;-72
2022/01/02 08:37:36;;;;;;;14.97;13.77;;;;;;;;;;5076110;28;20464;-72
2022/01/02 08:40:04;;;;;;;9.30;8.50;;;;;;;;;;5075855;28;20891;-73
2022/01/02 08:42:30;;;;;;;9.27;8.40;;;;;;;;;;5076149;28;20464;-73
2022/01/02 08:44:57;;;;;;;12.80;9.50;;;;;;;;;;5076724;28;20456;-73
2022/01/02 08:47:25;;;;;;;12.50;11.23;;;;;;;;;;5090628;28;20475;-73
2022/01/02 08:49:52;;;;;;;12.77;11.87;;;;;;;;;;5075836;28;20460;-72
2022/01/02 08:52:20;;;;;;;27.37;25.77;;;;;;;;;;5078098;28;20464;-73
2022/01/02 08:54:48;;;;;;;30.73;28.67;;;;;;;;;;5076747;28;20587;-73
2022/01/02 08:57:15;;;;;;;43.63;40.33;;;;;;;;;;5075129;28;20460;-74
2022/01/02 08:59:42;;;;;;;52.90;47.60;;;;;;;;;;5074968;28;20451;-74
2022/01/02 09:02:09;;;;;;;38.33;35.43;;;;;;;;;;5075147;28;20635;-73
2022/01/02 09:04:36;;;;;;;57.70;52.13;;;;;;;;;;5074574;28;20456;-74
2022/01/02 09:07:03;;;;;;;19.43;17.93;;;;;;;;;;5074881;28;20463;-73
2022/01/02 09:09:33;;;;;;;25.90;24.10;;;;;;;;;;5075673;28;20452;-72
2022/01/02 09:12:00;;;;;;;23.50;21.87;;;;;;;;;;5074980;28;20482;-73
2022/01/02 09:14:27;;;;;;;24.27;22.80;;;;;;;;;;5076293;28;20483;-73
2022/01/02 09:16:54;;;;;;;37.70;34.57;;;;;;;;;;5074907;28;20555;-73
2022/01/02 09:19:21;;;;;;;39.97;35.90;;;;;;;;;;5056762;28;20866;-72
2022/01/02 09:21:48;;;;;;;90.33;67.33;;;;;;;;;;5054496;28;20866;-72
2022/01/02 09:24:15;;;;;;;12.50;11.30;;;;;;;;;;5054722;28;20496;-73
2022/01/02 09:26:43;;;;;;;5.83;4.37;;;;;;;;;;5055125;28;20866;-73
2022/01/02 09:29:10;;;;;;;11.40;3.17;;;;;;;;;;5054742;28;20453;-74
2022/01/02 09:31:37;;;;;;;6.30;3.07;;;;;;;;;;5058643;28;20877;-73
2022/01/02 09:34:04;;;;;;;5.43;3.30;;;;;;;;;;5057721;28;20538;-73
2022/01/02 09:36:31;;;;;;;8.17;3.40;;;;;;;;;;5057905;28;20449;-72
2022/01/02 09:38:58;;;;;;;7.93;4.00;;;;;;;;;;5060741;28;20862;-73
2022/01/02 09:41:25;;;;;;;5.90;2.90;;;;;;;;;;5059040;28;20448;-73
2022/01/02 09:43:52;;;;;;;9.43;3.43;;;;;;;;;;5058223;28;20457;-73
2022/01/02 09:46:21;;;;;;;2.87;1.80;;;;;;;;;;5057574;28;20457;-73
2022/01/02 09:48:48;;;;;;;6.77;3.53;;;;;;;;;;5066426;28;20464;-73
2022/01/02 09:51:15;;;;;;;7.40;3.20;;;;;;;;;;5079123;28;20453;-73
2022/01/02 09:53:43;;;;;;;13.33;7.80;;;;;;;;;;5078389;28;20590;-73
2022/01/02 09:56:10;;;;;;;4.00;2.83;;;;;;;;;;5078516;28;20471;-73
2022/01/02 09:58:38;;;;;;;3.63;2.30;;;;;;;;;;5078299;28;20495;-73
2022/01/02 10:01:05;;;;;;;8.20;3.03;;;;;;;;;;5078490;28;20488;-73
2022/01/02 10:03:42;;;;;;;6.40;3.20;;;;;;;;;;5078564;28;20460;-73
2022/01/02 10:06:09;;;;;;;5.30;3.00;;;;;;;;;;5078774;28;20804;-74
2022/01/02 10:08:36;;;;;;;5.60;2.43;;;;;;;;;;5079510;28;20456;-73
2022/01/02 10:11:22;;;;;;;9.33;3.00;;;;;;;;;;5077662;28;21128;-74
2022/01/02 10:13:50;;;;;;;6.37;2.77;;;;;;;;;;5078665;28;20499;-73
2022/01/02 10:16:34;;;;;;;8.40;2.87;;;;;;;;;;5078373;28;20449;-73
2022/01/02 10:19:17;;;;;;;4.17;2.40;;;;;;;;;;5077944;28;20452;-72
2022/01/02 10:21:44;;;;;;;5.63;3.00;;;;;;;;;;5073062;28;20750;-72
2022/01/02 10:24:15;;;;;;;11.57;2.93;;;;;;;;;;5074122;28;21127;-73
2022/01/02 10:26:43;;;;;;;6.77;3.00;;;;;;;;;;5078542;28;20444;-72
2022/01/02 10:29:13;;;;;;;6.23;2.50;;;;;;;;;;5077988;28;20513;-72
2022/01/02 10:31:43;;;;;;;9.37;2.93;;;;;;;;;;5078662;28;20455;-73
2022/01/02 10:34:11;;;;;;;7.90;3.33;;;;;;;;;;5077701;28;20488;-73
2022/01/02 10:36:40;;;;;;;4.63;2.53;;;;;;;;;;5078451;28;20891;-73
2022/01/02 10:39:08;;;;;;;4.67;2.27;;;;;;;;;;5077966;28;20901;-73
2022/01/02 10:41:37;;;;;;;5.90;2.97;;;;;;;;;;5076682;28;21103;-73
2022/01/02 10:44:26;;;;;;;6.20;2.33;;;;;;;;;;5077713;28;20449;-73
2022/01/02 10:47:11;;;;;;;2.70;2.17;;;;;;;;;;5077723;28;20555;-72
2022/01/02 10:49:52;;;;;;;7.57;3.17;;;;;;;;;;5077226;28;20897;-73
2022/01/02 10:52:20;;;;;;;3.33;2.67;;;;;;;;;;5077273;28;20461;-73
2022/01/02 10:54:47;;;;;;;11.63;3.10;;;;;;;;;;5076242;28;20500;-73
2022/01/02 10:57:15;;;;;;;9.83;3.00;;;;;;;;;;5077617;28;20463;-73
2022/01/02 10:59:43;;;;;;;6.60;3.60;;;;;;;;;;5077671;28;20810;-73
2022/01/02 11:02:11;;;;;;;3.40;2.70;;;;;;;;;;5078217;28;20520;-73
2022/01/02 11:04:43;;;;;;;8.37;3.43;;;;;;;;;;5077197;28;20522;-73
2022/01/02 11:07:13;;;;;;;6.43;2.73;;;;;;;;;;5077480;28;20570;-74
2022/01/02 11:09:43;;;;;;;4.00;2.20;;;;;;;;;;5077499;28;20448;-74
2022/01/02 11:12:11;;;;;;;7.13;2.90;;;;;;;;;;5077879;28;20487;-73
2022/01/02 11:14:39;;;;;;;11.17;2.27;;;;;;;;;;5077932;28;20499;-73
2022/01/02 11:17:05;;;;;;;6.20;2.93;;;;;;;;;;5077523;28;20471;-73
2022/01/02 11:19:32;;;;;;;4.57;2.93;;;;;;;;;;5076970;28;20449;-74
2022/01/02 11:22:19;;;;;;;10.43;3.10;;;;;;;;;;5077112;28;20881;-74
2022/01/02 11:24:51;;;;;;;10.43;4.00;;;;;;;;;;5077334;28;20473;-74
2022/01/02 11:27:24;;;;;;;10.30;4.10;;;;;;;;;;5077174;28;20456;-74
2022/01/02 11:29:51;;;;;;;4.50;3.10;;;;;;;;;;5077815;28;20484;-74
2022/01/02 11:32:23;;;;;;;8.30;3.90;;;;;;;;;;5077866;28;20457;-74
2022/01/02 11:34:50;;;;;;;4.83;3.20;;;;;;;;;;5077487;28;20488;-74
2022/01/02 11:37:22;;;;;;;16.70;4.77;;;;;;;;;;5078561;28;20456;-74
2022/01/02 11:39:58;;;;;;;11.30;4.60;;;;;;;;;;5077442;28;20484;-74
2022/01/02 11:42:45;;;;;;;9.97;3.70;;;;;;;;;;5076641;28;20456;-74
2022/01/02 11:45:33;;;;;;;6.73;4.07;;;;;;;;;;5078224;28;20447;-74
2022/01/02 11:48:01;;;;;;;10.30;5.07;;;;;;;;;;5077127;28;20467;-73
2022/01/02 11:50:46;;;;;;;6.73;3.60;;;;;;;;;;5077524;28;20444;-73
2022/01/02 11:53:28;;;;;;;10.07;3.07;;;;;;;;;;5077511;28;20488;-73
2022/01/02 11:55:56;;;;;;;7.60;3.53;;;;;;;;;;5077454;28;20471;-74
2022/01/02 11:58:46;;;;;;;6.43;3.30;;;;;;;;;;5077847;28;20490;-74
2022/01/02 12:01:41;;;;;;;5.80;2.80;;;;;;;;;;5077872;28;20518;-73
2022/01/02 12:04:09;;;;;;;6.47;3.40;;;;;;;;;;5076490;28;20518;-74
2022/01/02 12:06:37;;;;;;;5.83;3.50;;;;;;;;;;5077139;28;20452;-74
2022/01/02 12:09:05;;;;;;;6.13;3.40;;;;;;;;;;5076018;28;20475;-74
2022/01/02 12:11:43;;;;;;;9.23;5.20;;;;;;;;;;5067137;28;20884;-74
2022/01/02 12:14:12;;;;;;;7.33;3.87;;;;;;;;;;5057203;28;20512;-75
2022/01/02 12:16:43;;;;;;;5.83;3.20;;;;;;;;;;5056498;28;20507;-74
2022/01/02 12:19:11;;;;;;;5.10;3.67;;;;;;;;;;5058828;28;20468;-74
2022/01/02 12:21:38;;;;;;;8.90;4.27;;;;;;;;;;5065181;28;20446;-73
2022/01/02 12:24:12;;;;;;;4.67;2.63;;;;;;;;;;5058801;28;20922;-72
2022/01/02 12:26:46;;;;;;;11.17;3.90;;;;;;;;;;5071365;28;20447;-73
2022/01/02 12:29:15;;;;;;;10.33;5.00;;;;;;;;;;5065626;28;20736;-72
2022/01/02 12:31:43;;;;;;;5.10;3.60;;;;;;;;;;5075286;28;20884;-74
2022/01/02 12:34:11;;;;;;;8.00;4.00;;;;;;;;;;5074964;28;20561;-73
2022/01/02 12:36:41;;;;;;;5.00;3.70;;;;;;;;;;5075733;28;20781;-73
2022/01/02 12:39:08;;;;;;;10.40;5.10;;;;;;;;;;5075150;28;20448;-73
2022/01/02 12:41:54;;;;;;;7.23;4.57;;;;;;;;;;5075746;28;20535;-74
2022/01/02 12:44:27;;;;;;;7.47;4.80;;;;;;;;;;5076492;28;20797;-74
2022/01/02 12:46:55;;;;;;;8.60;4.33;;;;;;;;;;5076205;28;20706;-74
2022/01/02 12:49:25;;;;;;;7.20;4.50;;;;;;;;;;5076463;28;20455;-74
2022/01/02 12:51:53;;;;;;;9.80;5.43;;;;;;;;;;5076134;28;20464;-74
2022/01/02 12:54:28;;;;;;;4.00;2.93;;;;;;;;;;5075973;28;20516;-73
2022/01/02 12:57:02;;;;;;;4.40;3.33;;;;;;;;;;5075376;28;20452;-74
2022/01/02 12:59:34;;;;;;;7.50;3.93;;;;;;;;;;5075430;28;20454;-72
2022/01/02 13:02:02;;;;;;;6.33;4.73;;;;;;;;;;5076495;28;20781;-75
2022/01/02 13:04:33;;;;;;;11.00;4.50;;;;;;;;;;5092861;28;20543;-74
2022/01/02 13:07:01;;;;;;;7.77;4.70;;;;;;;;;;5067405;28;20748;-73
2022/01/02 13:09:30;;;;;;;11.50;5.40;;;;;;;;;;5079671;28;20448;-73
2022/01/02 13:11:57;;;;;;;4.47;2.60;;;;;;;;;;5094933;28;20467;-74
2022/01/02 13:14:42;;;;;;;8.20;5.27;;;;;;;;;;5091279;28;20785;-73
2022/01/02 13:17:17;;;;;;;8.57;3.83;;;;;;;;;;5081096;28;20474;-74
2022/01/02 13:19:48;;;;;;;4.73;2.30;;;;;;;;;;5078267;28;20447;-73
2022/01/02 13:22:19;;;;;;;14.40;2.80;;;;;;;;;;5079542;28;20456;-73
2022/01/02 13:24:47;;;;;;;4.00;2.93;;;;;;;;;;5093813;28;20443;-73
2022/01/02 13:27:21;;;;;;;5.10;2.57;;;;;;;;;;5098669;28;20486;-72
2022/01/02 13:29:55;;;;;;;6.07;2.90;;;;;;;;;;5099509;28;20452;-73
2022/01/02 13:32:22;;;;;;;11.23;3.80;;;;;;;;;;5098243;28;20446;-72
2022/01/02 13:35:03;;;;;;;7.97;4.70;;;;;;;;;;5099609;28;21106;-72
2022/01/02 13:37:32;;;;;;;6.97;4.00;;;;;;;;;;5096699;28;20456;-73
2022/01/02 13:40:00;;;;;;;8.60;3.33;;;;;;;;;;5058750;28;20470;-72
2022/01/02 13:42:38;;;;;;;5.10;3.00;;;;;;;;;;5060031;28;20463;-72
2022/01/02 13:45:10;;;;;;;4.80;3.13;;;;;;;;;;5058870;28;20457;-73
2022/01/02 13:47:38;;;;;;;5.77;3.60;;;;;;;;;;5061468;28;20460;-73
2022/01/02 13:50:05;;;;;;;9.67;3.47;;;;;;;;;;5073499;28;20448;-72
2022/01/02 13:52:50;;;;;;;7.93;3.27;;;;;;;;;;5078275;28;20547;-72
2022/01/02 13:55:22;;;;;;;5.37;3.57;;;;;;;;;;5077792;28;20463;-73
2022/01/02 13:57:49;;;;;;;5.83;3.20;;;;;;;;;;5077260;28;20456;-73
2022/01/02 14:00:18;;;;;;;5.13;3.13;;;;;;;;;;5076700;28;20448;-73
2022/01/02 14:02:51;;;;;;;5.20;3.07;;;;;;;;;;5075945;28;20546;-72
2022/01/02 14:05:18;;;;;;;7.40;2.97;;;;;;;;;;5076436;28;20518;-72
2022/01/02 14:07:46;;;;;;;11.90;3.60;;;;;;;;;;5077360;28;20884;-72
2022/01/02 14:10:15;;;;;;;5.60;2.93;;;;;;;;;;5077426;28;20448;-73
2022/01/02 14:12:42;;;;;;;6.53;4.13;;;;;;;;;;5073722;28;20737;-73
2022/01/02 14:15:16;;;;;;;8.00;3.33;;;;;;;;;;5077070;28;20460;-72
2022/01/02 14:17:47;;;;;;;5.63;3.10;;;;;;;;;;5078758;28;20468;-72
2022/01/02 14:20:15;;;;;;;8.37;4.50;;;;;;;;;;5077915;28;20753;-72
2022/01/02 14:22:43;;;;;;;6.37;4.00;;;;;;;;;;5078410;28;20445;-72
2022/01/02 14:25:14;;;;;;;4.60;3.03;;;;;;;;;;5077310;28;20468;-73
2022/01/02 14:27:48;;;;;;;6.37;3.97;;;;;;;;;;5078152;28;20588;-73
2022/01/02 14:30:17;;;;;;;7.67;5.47;;;;;;;;;;5077585;28;20445;-72
2022/01/02 14:32:45;;;;;;;8.17;4.47;;;;;;;;;;5077974;28;20461;-73
2022/01/02 14:35:15;;;;;;;6.17;3.90;;;;;;;;;;5078778;28;20933;-73
2022/01/02 14:37:42;;;;;;;9.43;3.70;;;;;;;;;;5064448;28;20464;-74
2022/01/02 14:40:13;;;;;;;9.20;3.27;;;;;;;;;;5062980;28;20543;-73
2022/01/02 14:42:41;;;;;;;3.30;2.80;;;;;;;;;;5078381;28;20495;-73
2022/01/02 14:45:09;;;;;;;5.90;2.40;;;;;;;;;;5078220;28;20445;-73
2022/01/02 14:47:40;;;;;;;5.77;3.20;;;;;;;;;;5077619;28;20547;-73
2022/01/02 14:50:11;;;;;;;6.20;2.97;;;;;;;;;;5077750;28;21216;-73
2022/01/02 14:52:39;;;;;;;7.17;3.40;;;;;;;;;;5076796;28;20463;-73
2022/01/02 14:55:07;;;;;;;7.00;4.07;;;;;;;;;;5077092;28;20484;-73